Aviation Digital Data Service (ADDS)

Output produced by METARs form (2353 UTC 28 September 2016)
found at http://www.aviationweather.gov/adds/metars/
 
METAR text: KSBP 282256Z 22009KT 10SM CLR 29/10 A2990 RMK AO2 SLP122 T02890100
Conditions at: KSBP (SAN LUIS OBISPO , CA, US) observed 2256 UTC 28 September 2016
Temperature: 28.9°C (84°F)
Dewpoint: 10.0°C (50°F) [RH = 31%]
Pressure (altimeter): 29.90 inches Hg (1012.6 mb)
[Sea-level pressure: 1012.2 mb]
Winds: from the SW (220 degrees) at 10 MPH (9 knots; 4.7 m/s)
Visibility: 10 or more miles (16+ km)
Ceiling: at least 12,000 feet AGL
Clouds: sky clear below 12,000 feet AGL
Weather: no significant weather observed at this time

METAR text: KSBP 282156Z 26007KT 10SM CLR 30/11 A2990 RMK AO2 SLP123 T03000106
Conditions at: KSBP (SAN LUIS OBISPO , CA, US) observed 2156 UTC 28 September 2016
Temperature: 30.0°C (86°F)
Dewpoint: 10.6°C (51°F) [RH = 30%]
Pressure (altimeter): 29.90 inches Hg (1012.6 mb)
[Sea-level pressure: 1012.3 mb]
Winds: from the W (260 degrees) at 8 MPH (7 knots; 3.6 m/s)
Visibility: 10 or more miles (16+ km)
Ceiling: at least 12,000 feet AGL
Clouds: sky clear below 12,000 feet AGL
Weather: no significant weather observed at this time

METAR text: KSBP 282056Z 26009KT 10SM CLR 29/11 A2990 RMK AO2 SLP122 T02940111 56008
Conditions at: KSBP (SAN LUIS OBISPO , CA, US) observed 2056 UTC 28 September 2016
Temperature: 29.4°C (85°F)
Dewpoint: 11.1°C (52°F) [RH = 32%]
Pressure (altimeter): 29.90 inches Hg (1012.6 mb)
[Sea-level pressure: 1012.2 mb]
Winds: from the W (260 degrees) at 10 MPH (9 knots; 4.7 m/s)
Visibility: 10 or more miles (16+ km)
Ceiling: at least 12,000 feet AGL
Clouds: sky clear below 12,000 feet AGL
Weather: no significant weather observed at this time

METAR text: KSBP 281956Z 27009KT 10SM CLR 31/10 A2991 RMK AO2 SLP123 T03060100
Conditions at: KSBP (SAN LUIS OBISPO , CA, US) observed 1956 UTC 28 September 2016
Temperature: 30.6°C (87°F)
Dewpoint: 10.0°C (50°F) [RH = 28%]
Pressure (altimeter): 29.91 inches Hg (1013.0 mb)
[Sea-level pressure: 1012.3 mb]
Winds: from the W (270 degrees) at 10 MPH (9 knots; 4.7 m/s)
Visibility: 10 or more miles (16+ km)
Ceiling: at least 12,000 feet AGL
Clouds: sky clear below 12,000 feet AGL
Weather: no significant weather observed at this time

METAR text: KSBP 281856Z 29005KT 10SM CLR 30/08 A2991 RMK AO2 SLP126 T03000078
Conditions at: KSBP (SAN LUIS OBISPO , CA, US) observed 1856 UTC 28 September 2016
Temperature: 30.0°C (86°F)
Dewpoint: 7.8°C (46°F) [RH = 25%]
Pressure (altimeter): 29.91 inches Hg (1013.0 mb)
[Sea-level pressure: 1012.6 mb]
Winds: from the WNW (290 degrees) at 6 MPH (5 knots; 2.6 m/s)
Visibility: 10 or more miles (16+ km)
Ceiling: at least 12,000 feet AGL
Clouds: sky clear below 12,000 feet AGL
Weather: no significant weather observed at this time

METAR text: KSBP 281756Z 00000KT 10SM CLR 28/09 A2993 RMK AO2 SLP131 T02780089 10278 20117 51004
Conditions at: KSBP (SAN LUIS OBISPO , CA, US) observed 1756 UTC 28 September 2016
Temperature: 27.8°C (82°F)
Dewpoint: 8.9°C (48°F) [RH = 31%]
Pressure (altimeter): 29.93 inches Hg (1013.6 mb)
[Sea-level pressure: 1013.1 mb]
Winds: calm
Visibility: 10 or more miles (16+ km)
Ceiling: at least 12,000 feet AGL
Clouds: sky clear below 12,000 feet AGL
Weather: no significant weather observed at this time

METAR text: KSBP 281656Z 00000KT 10SM CLR 23/09 A2993 RMK AO2 SLP131 T02330094
Conditions at: KSBP (SAN LUIS OBISPO , CA, US) observed 1656 UTC 28 September 2016
Temperature: 23.3°C (74°F)
Dewpoint: 9.4°C (49°F) [RH = 41%]
Pressure (altimeter): 29.93 inches Hg (1013.6 mb)
[Sea-level pressure: 1013.1 mb]
Winds: calm
Visibility: 10 or more miles (16+ km)
Ceiling: at least 12,000 feet AGL
Clouds: sky clear below 12,000 feet AGL
Weather: no significant weather observed at this time

METAR text: KSBP 281556Z 00000KT 10SM CLR 17/11 A2992 RMK AO2 SLP132 T01670106
Conditions at: KSBP (SAN LUIS OBISPO , CA, US) observed 1556 UTC 28 September 2016
Temperature: 16.7°C (62°F)
Dewpoint: 10.6°C (51°F) [RH = 67%]
Pressure (altimeter): 29.92 inches Hg (1013.3 mb)
[Sea-level pressure: 1013.2 mb]
Winds: calm
Visibility: 10 or more miles (16+ km)
Ceiling: at least 12,000 feet AGL
Clouds: sky clear below 12,000 feet AGL
Weather: no significant weather observed at this time